Time;durP1;ratioP1;P1;durP2;ratioP2;P2;SDS_P1;SDS_P2;PMS_P1;PMS_P2;Temp;Humidity;BMP_temperature;BMP_pressure;BME280_temperature;BME280_humidity;BME280_pressure;Samples;Min_cycle;Max_cycle;Signal;HPM_P1;HPM_P2
2022/10/24 00:00:53;;;;;;;2.40;1.83;;;23.10;49.80;;;;;;4970060;28;20661;-60
2022/10/24 00:03:21;;;;;;;2.13;1.70;;;23.10;49.80;;;;;;4968182;28;20689;-60
2022/10/24 00:05:48;;;;;;;1.60;1.50;;;23.20;49.80;;;;;;4969046;28;20054;-60
2022/10/24 00:08:16;;;;;;;1.80;1.70;;;23.20;49.80;;;;;;4969753;28;20223;-60
2022/10/24 00:10:46;;;;;;;2.17;1.95;;;23.10;49.80;;;;;;4969407;28;20050;-60
2022/10/24 00:13:15;;;;;;;1.65;1.55;;;23.10;49.80;;;;;;4964788;28;20238;-60
2022/10/24 00:15:48;;;;;;;1.55;1.45;;;23.10;49.80;;;;;;4968914;28;20051;-60
2022/10/24 00:18:16;;;;;;;1.88;1.77;;;23.10;49.80;;;;;;4969161;28;20586;-60
2022/10/24 00:20:43;;;;;;;1.70;1.60;;;23.10;49.80;;;;;;4969758;28;20047;-60
2022/10/24 00:23:12;;;;;;;2.30;1.83;;;23.10;49.80;;;;;;4968405;28;20491;-60
2022/10/24 00:25:39;;;;;;;1.77;1.67;;;23.10;49.80;;;;;;4969208;28;20476;-60
2022/10/24 00:28:06;;;;;;;1.73;1.63;;;23.10;49.80;;;;;;4968490;28;20220;-60
2022/10/24 00:30:34;;;;;;;1.35;1.25;;;23.10;49.90;;;;;;4953680;28;20488;-60
2022/10/24 00:33:01;;;;;;;2.00;1.90;;;23.10;49.90;;;;;;4950003;28;20510;-60
2022/10/24 00:35:28;;;;;;;3.45;1.50;;;23.10;49.90;;;;;;4950281;28;20456;-60
2022/10/24 00:37:55;;;;;;;1.52;1.27;;;23.20;50.00;;;;;;4949595;28;20062;-60
2022/10/24 00:40:23;;;;;;;2.03;1.90;;;23.10;50.50;;;;;;4950289;28;20043;-60
2022/10/24 00:42:50;;;;;;;2.10;1.77;;;23.10;49.90;;;;;;4950325;28;20400;-60
2022/10/24 00:45:39;;;;;;;2.00;1.65;;;23.10;50.00;;;;;;4959405;28;20070;-60
2022/10/24 00:48:22;;;;;;;2.13;1.90;;;23.10;50.00;;;;;;4949062;28;20047;-60
2022/10/24 00:50:53;;;;;;;1.88;1.70;;;23.10;50.00;;;;;;4950525;28;20055;-60
2022/10/24 00:53:21;;;;;;;2.00;1.67;;;23.10;49.90;;;;;;4948950;28;20051;-60
2022/10/24 00:55:51;;;;;;;1.85;1.70;;;23.10;49.90;;;;;;4949466;28;20535;-60
2022/10/24 00:58:22;;;;;;;1.80;1.70;;;23.10;49.90;;;;;;4953475;28;20045;-60
2022/10/24 01:00:50;;;;;;;1.95;1.80;;;23.10;49.90;;;;;;4968588;28;20057;-60
2022/10/24 01:03:17;;;;;;;1.75;1.65;;;23.10;49.90;;;;;;4969405;28;20407;-60
2022/10/24 01:06:24;;;;;;;1.65;1.55;;;23.10;49.90;;;;;;4968260;28;20055;-60
2022/10/24 01:09:18;;;;;;;2.40;2.20;;;23.20;50.00;;;;;;4969743;28;20081;-60
2022/10/24 01:12:23;;;;;;;2.15;1.70;;;23.20;49.90;;;;;;4967743;28;20051;-60
2022/10/24 01:15:19;;;;;;;1.80;1.65;;;23.10;49.90;;;;;;4967812;28;20050;-60
2022/10/24 01:18:22;;;;;;;1.83;1.70;;;23.10;49.90;;;;;;4968314;28;20054;-60
2022/10/24 01:21:28;;;;;;;1.90;1.80;;;23.10;49.90;;;;;;4969022;28;20410;-60
2022/10/24 01:24:34;;;;;;;1.20;1.20;;;23.10;49.90;;;;;;4966882;28;20065;-60
2022/10/24 01:27:41;;;;;;;1.48;1.38;;;23.10;49.90;;;;;;4968488;28;20521;-60
2022/10/24 01:30:11;;;;;;;1.80;1.65;;;23.10;49.90;;;;;;4968950;28;20043;-60
2022/10/24 01:33:02;;;;;;;2.40;1.70;;;23.10;49.90;;;;;;4967827;28;20054;-60
2022/10/24 01:35:43;;;;;;;1.55;1.45;;;23.10;49.90;;;;;;4968413;28;20388;-60
2022/10/24 01:38:13;;;;;;;;;;;23.10;49.90;;;;;;4969595;28;20047;-60
2022/10/24 01:40:54;;;;;;;1.55;1.40;;;23.10;49.90;;;;;;4968353;28;20382;-60
2022/10/24 01:43:26;;;;;;;1.95;1.75;;;23.10;49.90;;;;;;4967666;28;20133;-60
2022/10/24 01:45:59;;;;;;;1.70;1.60;;;23.10;49.90;;;;;;4968031;28;20051;-60
2022/10/24 01:48:29;;;;;;;1.52;1.23;;;23.10;49.90;;;;;;4963944;28;20054;-60
2022/10/24 01:50:59;;;;;;;1.92;1.70;;;23.10;49.90;;;;;;4966464;28;20065;-60
2022/10/24 01:53:28;;;;;;;1.60;1.50;;;23.10;49.90;;;;;;4949685;28;20051;-60
2022/10/24 01:55:56;;;;;;;2.17;2.03;;;23.00;49.90;;;;;;4949621;28;20570;-60
2022/10/24 01:58:23;;;;;;;1.83;1.73;;;23.00;49.90;;;;;;4949279;28;20070;-60
2022/10/24 02:00:56;;;;;;;1.55;1.45;;;23.00;49.90;;;;;;4949602;28;20047;-60
2022/10/24 02:03:35;;;;;;;1.70;1.35;;;23.00;50.00;;;;;;4949587;28;20094;-60
2022/10/24 02:06:07;;;;;;;1.60;1.50;;;23.10;50.00;;;;;;4948884;28;20054;-60
2022/10/24 02:08:40;;;;;;;1.50;1.40;;;23.00;50.00;;;;;;4949988;28;20428;-60
2022/10/24 02:11:08;;;;;;;1.77;1.40;;;23.00;50.00;;;;;;4949355;28;20051;-60
2022/10/24 02:13:57;;;;;;;1.70;1.60;;;23.00;50.00;;;;;;4950860;28;20047;-60
2022/10/24 02:16:24;;;;;;;1.70;1.60;;;23.00;50.00;;;;;;4953210;28;20267;-60
2022/10/24 02:18:54;;;;;;;2.05;1.48;;;23.00;50.00;;;;;;4952357;28;20058;-60
2022/10/24 02:21:42;;;;;;;1.48;1.38;;;23.00;50.00;;;;;;4948374;28;20051;-60
2022/10/24 02:24:17;;;;;;;1.60;1.50;;;23.10;50.00;;;;;;4952460;28;20047;-60
2022/10/24 02:27:00;;;;;;;3.33;1.60;;;23.00;50.00;;;;;;4952314;29;20047;-60
2022/10/24 02:29:39;;;;;;;2.10;1.90;;;23.10;50.00;;;;;;4951284;29;20051;-60
2022/10/24 02:32:11;;;;;;;1.65;1.55;;;23.10;50.00;;;;;;4952465;28;20051;-60
2022/10/24 02:34:40;;;;;;;1.80;1.70;;;23.10;50.00;;;;;;4952395;28;20051;-60
2022/10/24 02:37:10;;;;;;;1.58;1.48;;;23.10;50.00;;;;;;4951366;28;20052;-60
2022/10/24 02:39:39;;;;;;;1.70;1.60;;;23.10;50.00;;;;;;4952142;28;20054;-60
2022/10/24 02:42:09;;;;;;;1.70;1.60;;;23.10;50.00;;;;;;4952252;28;20048;-60
2022/10/24 02:44:39;;;;;;;1.60;1.50;;;23.10;50.00;;;;;;4951078;29;20083;-60
2022/10/24 02:47:10;;;;;;;1.60;1.50;;;23.10;49.90;;;;;;4951285;28;20051;-60
2022/10/24 02:49:37;;;;;;;1.70;1.60;;;23.10;50.00;;;;;;4952637;28;20078;-60
2022/10/24 02:52:05;;;;;;;3.65;1.90;;;23.10;50.00;;;;;;4947225;28;20062;-60
2022/10/24 02:54:32;;;;;;;2.28;1.67;;;23.10;50.00;;;;;;4961448;28;20479;-60
2022/10/24 02:57:01;;;;;;;1.98;1.88;;;23.00;49.90;;;;;;4971252;28;20043;-60
2022/10/24 02:59:28;;;;;;;3.03;1.58;;;23.10;49.90;;;;;;4970121;28;20475;-60
2022/10/24 03:01:56;;;;;;;1.65;1.55;;;23.00;49.90;;;;;;4970916;28;21504;-60
2022/10/24 03:04:23;;;;;;;2.13;1.95;;;23.00;49.90;;;;;;4971311;28;20055;-60
2022/10/24 03:06:52;;;;;;;1.50;1.40;;;23.00;49.90;;;;;;4970703;28;20403;-60
2022/10/24 03:09:19;;;;;;;2.08;1.77;;;23.00;49.90;;;;;;4970441;28;20566;-60
2022/10/24 03:11:46;;;;;;;1.48;1.38;;;23.00;49.90;;;;;;4970433;28;20442;-60
2022/10/24 03:14:13;;;;;;;1.70;1.55;;;23.10;50.00;;;;;;4971425;28;20051;-60
2022/10/24 03:16:40;;;;;;;1.60;1.50;;;23.10;50.00;;;;;;4971146;28;20414;-60
2022/10/24 03:19:07;;;;;;;1.50;1.40;;;23.10;50.00;;;;;;4970766;28;20054;-60
2022/10/24 03:21:35;;;;;;;1.60;1.50;;;23.10;50.00;;;;;;4971023;28;20047;-60
2022/10/24 03:24:02;;;;;;;1.33;1.27;;;23.10;50.00;;;;;;4947966;28;20059;-60
2022/10/24 03:26:30;;;;;;;1.45;1.35;;;23.00;50.00;;;;;;4970805;28;20078;-60
2022/10/24 03:28:57;;;;;;;1.80;1.70;;;23.00;50.00;;;;;;4969216;28;20054;-60
2022/10/24 03:31:24;;;;;;;1.50;1.40;;;23.00;50.00;;;;;;4969067;28;20050;-60
2022/10/24 03:33:51;;;;;;;1.67;1.58;;;23.00;50.00;;;;;;4969304;28;20216;-60
2022/10/24 03:36:18;;;;;;;1.35;1.35;;;23.00;50.00;;;;;;4969253;28;20042;-60
2022/10/24 03:38:45;;;;;;;1.85;1.75;;;23.00;50.00;;;;;;4969512;28;20065;-60
2022/10/24 03:41:12;;;;;;;1.90;1.70;;;23.00;50.10;;;;;;4970065;28;20054;-60
2022/10/24 03:43:39;;;;;;;1.67;1.40;;;23.00;50.10;;;;;;4970264;28;20054;-60
2022/10/24 03:46:06;;;;;;;2.13;1.80;;;23.00;50.10;;;;;;4969595;28;20423;-60
2022/10/24 03:48:33;;;;;;;2.58;1.63;;;23.00;50.10;;;;;;4969997;28;20047;-60
2022/10/24 03:51:00;;;;;;;1.75;1.65;;;23.00;50.10;;;;;;4964067;28;20046;-60
2022/10/24 03:53:27;;;;;;;1.60;1.50;;;23.00;50.00;;;;;;4960934;28;20443;-60
2022/10/24 03:55:56;;;;;;;1.88;1.70;;;23.00;50.00;;;;;;4959918;28;20054;-60
2022/10/24 03:58:23;;;;;;;1.50;1.40;;;23.00;50.00;;;;;;4955492;28;20448;-60
2022/10/24 04:00:50;;;;;;;1.90;1.60;;;23.00;50.00;;;;;;4958817;28;20058;-60
2022/10/24 04:03:18;;;;;;;2.10;1.60;;;23.10;50.00;;;;;;4957886;28;20061;-60
2022/10/24 04:05:45;;;;;;;1.77;1.67;;;23.00;50.00;;;;;;4951218;28;20055;-60
2022/10/24 04:08:12;;;;;;;2.38;2.03;;;23.00;50.00;;;;;;4952563;28;20416;-60
2022/10/24 04:10:39;;;;;;;1.60;1.50;;;23.10;50.00;;;;;;4969446;28;20046;-60
2022/10/24 04:13:06;;;;;;;1.92;1.75;;;23.00;50.00;;;;;;4970053;28;20062;-60
2022/10/24 04:15:33;;;;;;;1.92;1.52;;;23.00;50.00;;;;;;4969451;28;20047;-60
2022/10/24 04:18:00;;;;;;;2.15;1.95;;;23.00;50.00;;;;;;4969853;28;20042;-60
2022/10/24 04:20:27;;;;;;;2.00;1.80;;;23.00;50.00;;;;;;4969252;28;20055;-60
2022/10/24 04:22:54;;;;;;;1.45;1.35;;;23.00;50.00;;;;;;4968529;28;20055;-60
2022/10/24 04:25:21;;;;;;;1.60;1.50;;;23.00;50.00;;;;;;4966246;28;20399;-60
2022/10/24 04:27:48;;;;;;;2.60;1.58;;;23.00;50.00;;;;;;4959067;28;20211;-60
2022/10/24 04:30:15;;;;;;;1.80;1.67;;;23.00;50.00;;;;;;4956968;28;20047;-60
2022/10/24 04:32:43;;;;;;;1.73;1.63;;;23.00;50.00;;;;;;4958978;28;20054;-60
2022/10/24 04:35:11;;;;;;;3.90;1.70;;;23.00;50.00;;;;;;4957699;28;20491;-60
2022/10/24 04:37:38;;;;;;;2.03;1.90;;;23.00;50.00;;;;;;4958735;28;20047;-60
2022/10/24 04:40:06;;;;;;;2.20;2.00;;;23.00;50.10;;;;;;4959033;28;20387;-60
2022/10/24 04:42:33;;;;;;;2.42;1.90;;;23.00;50.10;;;;;;4962137;28;20051;-60
2022/10/24 04:45:00;;;;;;;2.25;1.70;;;23.00;50.10;;;;;;4967299;28;20378;-60
2022/10/24 04:47:27;;;;;;;3.70;2.53;;;23.00;50.10;;;;;;4966948;28;20054;-60
2022/10/24 04:49:54;;;;;;;2.85;2.10;;;23.00;50.10;;;;;;4964621;28;20043;-60
2022/10/24 04:52:21;;;;;;;3.47;2.10;;;23.00;50.10;;;;;;4961175;28;20047;-60
2022/10/24 04:54:49;;;;;;;2.00;1.80;;;23.00;50.20;;;;;;4959405;28;20051;-60
2022/10/24 04:57:16;;;;;;;3.17;2.40;;;23.00;50.20;;;;;;4979967;28;20483;-60
2022/10/24 04:59:43;;;;;;;2.13;1.90;;;23.00;50.30;;;;;;4958156;28;20566;-60
2022/10/24 05:02:10;;;;;;;4.70;2.40;;;23.00;50.30;;;;;;4951441;28;20054;-60
2022/10/24 05:04:37;;;;;;;2.50;2.30;;;23.00;50.40;;;;;;4970014;28;20185;-60
2022/10/24 05:07:04;;;;;;;4.30;2.72;;;23.00;50.40;;;;;;4949260;28;20414;-60
2022/10/24 05:09:31;;;;;;;5.68;3.45;;;23.00;50.50;;;;;;4948675;29;20071;-60
2022/10/24 05:11:59;;;;;;;6.63;2.85;;;23.00;50.50;;;;;;4949188;28;20039;-60
2022/10/24 05:14:26;;;;;;;3.97;2.65;;;23.00;50.50;;;;;;4955058;28;20070;-60
2022/10/24 05:16:53;;;;;;;3.75;2.88;;;23.00;50.50;;;;;;4961674;28;20043;-60
2022/10/24 05:19:20;;;;;;;3.03;2.40;;;23.00;50.60;;;;;;4968187;28;20054;-60
2022/10/24 05:21:47;;;;;;;3.38;2.70;;;23.00;50.80;;;;;;4958334;28;20050;-60
2022/10/24 05:24:14;;;;;;;4.82;3.05;;;23.00;50.90;;;;;;4967789;28;20043;-60
2022/10/24 05:26:41;;;;;;;4.38;3.00;;;23.00;51.10;;;;;;4961030;28;20423;-60
2022/10/24 05:29:09;;;;;;;3.67;2.80;;;23.00;51.20;;;;;;4958965;28;20047;-58
2022/10/24 05:31:36;;;;;;;5.05;3.13;;;23.00;51.20;;;;;;4959255;28;20059;-58
2022/10/24 05:34:03;;;;;;;4.72;2.63;;;23.00;51.40;;;;;;4956165;28;20590;-59
2022/10/24 05:36:30;;;;;;;4.50;2.75;;;23.00;51.50;;;;;;4961869;28;20054;-59
2022/10/24 05:38:57;;;;;;;3.45;3.15;;;23.10;51.50;;;;;;4963284;28;20061;-58
2022/10/24 05:41:25;;;;;;;8.77;4.07;;;23.10;51.50;;;;;;4959607;28;20419;-58
2022/10/24 05:43:52;;;;;;;7.82;3.38;;;23.10;51.70;;;;;;4958491;28;20047;-59
2022/10/24 05:46:19;;;;;;;5.90;3.30;;;23.10;51.60;;;;;;4960637;28;20109;-58
2022/10/24 05:48:46;;;;;;;5.47;3.55;;;23.10;51.50;;;;;;4959673;28;20053;-61
2022/10/24 05:51:13;;;;;;;11.25;3.78;;;23.10;51.40;;;;;;4964853;28;20047;-60
2022/10/24 05:53:41;;;;;;;6.40;3.70;;;23.10;51.40;;;;;;4964856;28;20050;-60
2022/10/24 05:56:09;;;;;;;4.25;3.55;;;23.10;51.70;;;;;;4954122;28;20057;-59
2022/10/24 05:58:36;;;;;;;5.28;3.60;;;23.10;52.50;;;;;;4961843;28;20419;-61
2022/10/24 06:01:03;;;;;;;7.70;4.55;;;23.20;52.20;;;;;;4960378;28;20053;-59
2022/10/24 06:03:30;;;;;;;5.35;3.75;;;23.20;52.40;;;;;;4969895;28;20061;-60
2022/10/24 06:06:01;;;;;;;5.35;3.33;;;23.20;52.30;;;;;;4962212;28;20058;-63
2022/10/24 06:08:28;;;;;;;6.28;3.88;;;23.20;52.40;;;;;;4955025;28;20323;-61
2022/10/24 06:10:55;;;;;;;6.43;4.03;;;23.20;52.60;;;;;;4960031;28;20061;-61
2022/10/24 06:13:23;;;;;;;9.90;3.78;;;23.30;52.60;;;;;;4960320;28;20134;-62
2022/10/24 06:15:50;;;;;;;7.13;3.42;;;23.30;52.70;;;;;;4961612;28;20137;-60
2022/10/24 06:18:18;;;;;;;10.15;4.00;;;23.30;52.60;;;;;;4958620;28;20053;-62
2022/10/24 06:20:45;;;;;;;7.90;3.42;;;23.30;52.60;;;;;;4964802;28;20051;-64
2022/10/24 06:23:12;;;;;;;6.25;4.07;;;23.40;52.70;;;;;;4966391;28;20050;-61
2022/10/24 06:25:40;;;;;;;7.13;3.65;;;23.40;52.70;;;;;;4958619;28;20419;-62
2022/10/24 06:28:08;;;;;;;7.10;3.92;;;23.40;52.70;;;;;;4959237;28;20055;-61
2022/10/24 06:30:35;;;;;;;8.95;4.05;;;23.40;52.80;;;;;;4959558;28;20100;-62
2022/10/24 06:33:03;;;;;;;6.68;4.28;;;23.40;52.90;;;;;;4955630;28;20509;-61
2022/10/24 06:35:30;;;;;;;5.68;3.70;;;23.50;52.90;;;;;;4958537;28;20578;-61
2022/10/24 06:37:57;;;;;;;8.02;4.00;;;23.60;53.00;;;;;;4958887;28;20506;-61
2022/10/24 06:40:24;;;;;;;5.07;3.53;;;23.60;53.00;;;;;;4956466;28;20502;-61
2022/10/24 06:42:51;;;;;;;9.45;4.20;;;23.60;52.90;;;;;;4962466;28;20470;-61
2022/10/24 06:45:20;;;;;;;8.10;3.80;;;23.60;52.80;;;;;;4963401;28;20407;-62
2022/10/24 06:47:48;;;;;;;6.93;4.18;;;23.70;53.00;;;;;;4955263;28;20057;-62
2022/10/24 06:50:20;;;;;;;8.60;3.75;;;23.70;52.90;;;;;;4964418;28;20055;-61
2022/10/24 06:52:47;;;;;;;11.00;4.60;;;23.70;52.80;;;;;;4968070;28;20061;-60
2022/10/24 06:55:14;;;;;;;6.93;3.70;;;23.80;52.90;;;;;;4963404;28;20065;-61
2022/10/24 06:57:41;;;;;;;6.63;4.07;;;23.80;52.80;;;;;;4966941;28;20054;-62
2022/10/24 07:00:10;;;;;;;7.65;4.57;;;23.80;52.80;;;;;;4957437;28;20117;-61
2022/10/24 07:02:37;;;;;;;7.43;3.97;;;23.80;52.60;;;;;;4959091;28;20054;-62
2022/10/24 07:05:08;;;;;;;6.68;4.07;;;23.90;52.70;;;;;;4957034;28;20055;-62
2022/10/24 07:07:35;;;;;;;7.75;4.30;;;23.90;52.70;;;;;;4963064;28;21552;-63
2022/10/24 07:10:02;;;;;;;4.40;3.97;;;23.90;52.80;;;;;;4958737;28;20055;-63
2022/10/24 07:12:29;;;;;;;7.60;4.05;;;23.90;52.80;;;;;;4958440;28;20043;-62
2022/10/24 07:14:56;;;;;;;8.27;4.43;;;24.00;52.80;;;;;;4960779;28;20059;-63
2022/10/24 07:17:24;;;;;;;10.98;5.45;;;24.00;52.60;;;;;;4964271;28;20051;-63
2022/10/24 07:19:52;;;;;;;8.68;4.10;;;24.00;52.60;;;;;;4962875;28;20137;-62
2022/10/24 07:22:19;;;;;;;8.20;4.38;;;24.00;52.50;;;;;;4964199;28;20054;-63
2022/10/24 07:24:52;;;;;;;10.63;4.65;;;24.00;52.50;;;;;;4960122;28;20050;-62
2022/10/24 07:27:20;;;;;;;7.38;4.30;;;24.00;52.40;;;;;;4960760;28;20050;-62
2022/10/24 07:29:48;;;;;;;9.25;5.32;;;24.00;52.40;;;;;;4957460;28;20051;-63
2022/10/24 07:32:15;;;;;;;8.25;4.72;;;24.10;52.40;;;;;;4959819;28;20058;-62
2022/10/24 07:34:43;;;;;;;8.73;4.43;;;24.10;52.50;;;;;;4959529;28;20054;-63
2022/10/24 07:37:10;;;;;;;11.00;5.15;;;24.10;52.40;;;;;;4962853;28;20055;-63
2022/10/24 07:39:38;;;;;;;6.55;4.90;;;24.10;52.50;;;;;;4962000;28;20523;-64
2022/10/24 07:42:05;;;;;;;7.80;4.68;;;24.10;52.40;;;;;;4955434;28;20487;-67
2022/10/24 07:44:32;;;;;;;12.20;5.28;;;24.10;52.40;;;;;;4959669;28;20055;-65
2022/10/24 07:47:00;;;;;;;8.25;4.60;;;24.10;52.40;;;;;;4964132;28;20038;-64
2022/10/24 07:49:27;;;;;;;8.15;5.35;;;24.10;52.40;;;;;;4962153;28;20195;-64
2022/10/24 07:51:59;;;;;;;9.27;4.47;;;24.10;52.40;;;;;;4963547;28;20057;-63
2022/10/24 07:54:27;;;;;;;6.22;4.70;;;24.10;52.40;;;;;;4963517;28;20453;-64
2022/10/24 07:56:58;;;;;;;6.72;4.70;;;24.20;52.40;;;;;;4958938;28;20065;-63
2022/10/24 07:59:27;;;;;;;7.78;5.05;;;24.20;52.40;;;;;;4955359;28;20427;-63
2022/10/24 08:02:13;;;;;;;9.43;4.75;;;24.20;52.30;;;;;;4963745;28;20046;-66
2022/10/24 08:04:40;;;;;;;8.23;5.55;;;24.20;52.30;;;;;;4966028;28;20051;-63
2022/10/24 08:07:12;;;;;;;13.25;5.85;;;24.20;52.80;;;;;;4960362;28;20492;-62
2022/10/24 08:09:45;;;;;;;11.00;5.53;;;24.30;52.40;;;;;;4960184;28;20177;-65
2022/10/24 08:12:12;;;;;;;12.95;5.43;;;24.30;52.50;;;;;;4958701;28;20065;-66
2022/10/24 08:14:40;;;;;;;8.88;5.47;;;24.30;52.50;;;;;;4964034;28;20054;-65
2022/10/24 08:17:08;;;;;;;16.40;5.50;;;24.30;52.60;;;;;;4960684;28;20051;-63
2022/10/24 08:19:35;;;;;;;13.82;5.15;;;24.40;52.70;;;;;;4965355;28;20046;-63
2022/10/24 08:22:03;;;;;;;7.38;4.00;;;24.40;52.90;;;;;;4964503;28;20380;-64
2022/10/24 08:24:30;;;;;;;12.77;4.85;;;24.50;53.00;;;;;;4960156;28;20068;-65
2022/10/24 08:26:58;;;;;;;8.73;4.93;;;24.50;53.10;;;;;;4954685;28;20078;-66
2022/10/24 08:29:25;;;;;;;12.82;5.63;;;24.50;53.10;;;;;;4956918;28;21888;-63
2022/10/24 08:31:54;;;;;;;6.47;4.80;;;24.50;53.00;;;;;;4949042;28;20051;-62
2022/10/24 08:34:22;;;;;;;14.55;4.60;;;24.60;53.00;;;;;;4948526;28;20050;-63
2022/10/24 08:36:49;;;;;;;8.35;5.10;;;24.60;52.90;;;;;;4942930;28;20077;-61
2022/10/24 08:39:17;;;;;;;11.90;5.07;;;24.60;52.70;;;;;;4958862;28;20054;-61
2022/10/24 08:41:49;;;;;;;13.38;6.28;;;24.70;52.80;;;;;;4959052;28;20043;-62
2022/10/24 08:44:30;;;;;;;11.40;5.47;;;24.70;53.10;;;;;;4958142;28;20053;-64
2022/10/24 08:47:07;;;;;;;29.67;10.55;;;24.70;53.10;;;;;;4960283;28;20050;-62
2022/10/24 08:49:48;;;;;;;31.73;11.73;;;24.70;53.10;;;;;;4951205;28;20066;-61
2022/10/24 08:52:43;;;;;;;27.73;10.95;;;24.70;53.20;;;;;;4962923;28;20567;-61
2022/10/24 08:55:20;;;;;;;17.65;9.00;;;24.70;53.40;;;;;;4958069;28;20133;-60
2022/10/24 08:58:15;;;;;;;22.02;9.35;;;24.80;53.40;;;;;;4957430;28;20311;-61
2022/10/24 09:00:45;;;;;;;23.88;8.25;;;24.70;53.30;;;;;;4956912;28;20050;-61
2022/10/24 09:03:36;;;;;;;15.60;8.50;;;24.80;53.20;;;;;;4955773;28;20062;-61
2022/10/24 09:06:24;;;;;;;22.95;8.55;;;24.90;53.30;;;;;;4958501;28;20054;-61
2022/10/24 09:09:17;;;;;;;13.95;8.38;;;24.90;53.20;;;;;;4954765;28;20050;-61
2022/10/24 09:11:58;;;;;;;16.70;7.93;;;24.90;53.10;;;;;;4956916;28;20057;-60
2022/10/24 09:14:30;;;;;;;14.07;6.82;;;25.00;53.10;;;;;;4962957;28;20443;-62
2022/10/24 09:17:08;;;;;;;15.98;6.95;;;25.00;53.00;;;;;;4963359;28;20495;-61
2022/10/24 09:19:37;;;;;;;14.52;6.78;;;25.00;53.00;;;;;;4953918;28;20423;-63
2022/10/24 09:22:06;;;;;;;8.45;5.57;;;25.00;52.80;;;;;;4954279;28;20483;-61
2022/10/24 09:24:50;;;;;;;16.63;5.93;;;25.10;52.90;;;;;;4962771;28;20054;-63
2022/10/24 09:27:28;;;;;;;10.00;5.47;;;25.10;52.70;;;;;;4959955;28;20161;-60
2022/10/24 09:29:57;;;;;;;11.27;5.93;;;25.20;52.70;;;;;;4964228;28;21376;-62
2022/10/24 09:32:29;;;;;;;11.60;6.70;;;25.20;52.60;;;;;;4968611;28;20057;-62
2022/10/24 09:35:07;;;;;;;12.07;6.30;;;25.30;52.50;;;;;;4964557;28;20054;-62
2022/10/24 09:37:55;;;;;;;13.40;6.57;;;25.40;52.20;;;;;;4961300;28;20526;-63
2022/10/24 09:40:32;;;;;;;10.07;5.60;;;25.40;51.90;;;;;;4962601;28;20054;-62
2022/10/24 09:43:06;;;;;;;9.63;5.80;;;25.40;52.00;;;;;;4958949;28;20051;-62
2022/10/24 09:45:38;;;;;;;8.75;4.85;;;25.50;52.20;;;;;;4958171;28;20408;-62
2022/10/24 09:48:23;;;;;;;12.70;6.03;;;25.50;51.90;;;;;;4958808;28;20046;-62
2022/10/24 09:50:57;;;;;;;8.73;5.72;;;25.50;52.10;;;;;;4961468;28;20515;-61
2022/10/24 09:53:35;;;;;;;10.82;5.55;;;25.60;52.50;;;;;;4962805;28;20039;-61
2022/10/24 09:56:13;;;;;;;8.98;5.30;;;25.60;51.80;;;;;;4962969;28;20066;-62
2022/10/24 09:58:41;;;;;;;9.75;5.20;;;25.60;51.70;;;;;;4980612;28;20055;-62
2022/10/24 10:01:19;;;;;;;10.45;6.05;;;25.70;52.10;;;;;;4965676;28;20078;-64
2022/10/24 10:04:02;;;;;;;8.00;5.05;;;25.70;51.90;;;;;;4963282;28;20381;-62
2022/10/24 10:06:44;;;;;;;15.60;5.57;;;25.70;52.00;;;;;;4966919;28;20050;-62
2022/10/24 10:09:14;;;;;;;12.38;5.53;;;25.70;51.80;;;;;;4971463;28;20522;-61
2022/10/24 10:11:41;;;;;;;13.70;5.95;;;25.70;51.80;;;;;;4957920;28;20070;-62
2022/10/24 10:14:23;;;;;;;10.90;5.63;;;25.70;51.50;;;;;;4966606;28;20145;-62
2022/10/24 10:17:00;;;;;;;;;;;25.70;51.40;;;;;;4963934;28;20638;-62
2022/10/24 10:19:31;;;;;;;12.07;5.65;;;25.70;51.40;;;;;;4964673;28;19957;-62
2022/10/24 10:22:05;;;;;;;14.45;6.20;;;25.70;51.50;;;;;;4964289;28;20058;-60
2022/10/24 10:24:38;;;;;;;20.77;6.18;;;25.60;51.50;;;;;;4955837;28;20042;-62
2022/10/24 10:27:34;;;;;;;19.45;6.35;;;25.60;51.70;;;;;;4954862;28;20047;-61
2022/10/24 10:30:20;;;;;;;17.10;5.63;;;25.50;51.70;;;;;;4957806;28;20154;-59
2022/10/24 10:33:22;;;;;;;9.55;5.20;;;25.50;51.90;;;;;;4962929;28;20054;-59
2022/10/24 10:36:11;;;;;;;15.75;6.53;;;25.40;51.90;;;;;;4959268;28;20112;-61
2022/10/24 10:39:08;;;;;;;8.13;5.27;;;25.40;52.00;;;;;;4958714;28;20445;-60
2022/10/24 10:41:57;;;;;;;13.75;5.55;;;25.50;52.10;;;;;;4960278;28;20042;-61
2022/10/24 10:44:55;;;;;;;13.10;6.63;;;25.40;52.10;;;;;;4954116;28;20051;-64
2022/10/24 10:47:49;;;;;;;12.80;5.32;;;25.50;52.00;;;;;;4957597;28;20047;-62
2022/10/24 10:50:41;;;;;;;13.98;5.38;;;25.50;52.30;;;;;;4957555;28;20675;-63
2022/10/24 10:53:26;;;;;;;9.23;5.00;;;25.60;52.50;;;;;;4957635;28;20046;-64
2022/10/24 10:56:23;;;;;;;9.38;6.15;;;25.60;52.50;;;;;;4951621;28;20128;-63
2022/10/24 10:59:27;;;;;;;9.68;5.10;;;25.60;52.40;;;;;;4949570;28;20051;-63
2022/10/24 11:02:22;;;;;;;7.43;5.30;;;25.60;52.30;;;;;;4969909;28;20047;-62
2022/10/24 11:05:18;;;;;;;13.32;5.57;;;25.60;52.40;;;;;;4959510;28;20050;-62
2022/10/24 11:07:57;;;;;;;7.82;5.10;;;25.60;52.30;;;;;;4959873;28;20500;-62
2022/10/24 11:10:31;;;;;;;13.10;4.85;;;25.60;52.50;;;;;;4953592;28;20058;-62
2022/10/24 11:13:03;;;;;;;7.43;4.90;;;25.60;52.30;;;;;;4961737;28;20065;-62
2022/10/24 11:15:36;;;;;;;14.50;6.10;;;25.70;52.40;;;;;;4954370;28;20050;-63
2022/10/24 11:18:22;;;;;;;16.67;6.10;;;25.70;52.40;;;;;;4961829;28;20058;-63
2022/10/24 11:20:56;;;;;;;10.40;5.28;;;25.70;52.50;;;;;;4956735;28;20483;-62
2022/10/24 11:23:36;;;;;;;11.55;4.93;;;25.70;52.50;;;;;;4960474;28;20046;-60
2022/10/24 11:26:15;;;;;;;10.43;5.20;;;25.70;52.50;;;;;;4957232;28;20129;-61
2022/10/24 11:29:07;;;;;;;8.23;5.55;;;25.70;52.50;;;;;;4962534;28;20050;-63
2022/10/24 11:31:39;;;;;;;9.77;5.30;;;25.70;52.40;;;;;;4959533;28;20062;-63
2022/10/24 11:34:16;;;;;;;10.15;4.57;;;25.70;52.50;;;;;;4955160;28;20043;-63
2022/10/24 11:37:06;;;;;;;10.27;5.40;;;25.70;52.50;;;;;;4965046;28;20050;-63
2022/10/24 11:39:44;;;;;;;14.23;5.78;;;25.70;52.50;;;;;;4962966;28;20149;-63
2022/10/24 11:42:26;;;;;;;9.52;5.43;;;25.70;52.40;;;;;;4969201;28;20051;-61
2022/10/24 11:45:12;;;;;;;11.85;5.45;;;25.70;52.60;;;;;;4961648;28;20050;-64
2022/10/24 11:48:09;;;;;;;19.60;5.18;;;25.70;52.50;;;;;;4959391;28;20695;-61
2022/10/24 11:50:52;;;;;;;14.63;6.00;;;25.80;52.20;;;;;;4956169;28;20071;-62
2022/10/24 11:53:46;;;;;;;11.77;5.15;;;25.80;52.40;;;;;;4957571;28;20051;-62
2022/10/24 11:56:42;;;;;;;10.13;5.70;;;25.80;52.50;;;;;;4960645;28;20054;-62
2022/10/24 11:59:17;;;;;;;10.88;5.60;;;25.80;52.40;;;;;;4957030;28;20573;-63
2022/10/24 12:02:21;;;;;;;16.27;5.30;;;25.80;52.30;;;;;;4955009;28;20054;-60
2022/10/24 12:05:12;;;;;;;10.13;5.90;;;25.80;52.40;;;;;;4956418;28;20140;-62
2022/10/24 12:08:32;;;;;;;8.18;5.22;;;25.90;52.50;;;;;;5084766;27;20441;-61
2022/10/24 12:11:33;;;;;;;12.82;5.80;;;25.90;52.50;;;;;;5063034;28;20063;-62
2022/10/24 12:14:06;;;;;;;;;;;25.90;52.60;;;;;;5071533;28;20139;-62
2022/10/24 12:17:07;;;;;;;11.02;5.40;;;25.90;52.50;;;;;;5067405;28;19925;-63
2022/10/24 12:19:37;;;;;;;8.45;5.20;;;25.90;52.40;;;;;;5063932;28;20048;-63
2022/10/24 12:22:06;;;;;;;9.43;5.57;;;25.90;52.40;;;;;;5059170;28;20064;-64
2022/10/24 12:24:38;;;;;;;11.15;5.78;;;25.90;52.30;;;;;;5065714;28;20107;-64
2022/10/24 12:27:19;;;;;;;11.35;5.35;;;26.00;52.30;;;;;;5072780;28;20053;-62
2022/10/24 12:30:01;;;;;;;12.02;5.43;;;25.90;52.30;;;;;;5062141;28;20051;-61
2022/10/24 12:32:50;;;;;;;7.43;5.13;;;26.00;52.40;;;;;;5059137;28;20052;-62
2022/10/24 12:35:45;;;;;;;15.20;6.43;;;26.00;52.20;;;;;;5057280;28;20055;-62
2022/10/24 12:38:17;;;;;;;15.43;5.57;;;26.00;52.00;;;;;;5061193;28;20056;-62
2022/10/24 12:40:57;;;;;;;7.57;5.20;;;26.00;52.40;;;;;;5065144;28;20099;-62
2022/10/24 12:43:47;;;;;;;8.98;5.22;;;26.10;52.40;;;;;;5064858;28;20059;-61
2022/10/24 12:46:53;;;;;;;11.95;4.88;;;26.10;52.00;;;;;;5053949;28;20049;-62
2022/10/24 12:49:29;;;;;;;14.38;5.00;;;26.10;51.60;;;;;;5061978;28;20384;-61
2022/10/24 12:51:58;;;;;;;14.38;5.03;;;26.10;51.60;;;;;;5067185;28;20476;-64
2022/10/24 12:54:41;;;;;;;15.55;5.28;;;26.10;51.70;;;;;;5062759;28;20543;-63
2022/10/24 12:57:24;;;;;;;7.82;4.68;;;26.10;51.50;;;;;;5060539;28;20057;-63
2022/10/24 12:59:56;;;;;;;12.35;6.05;;;26.10;51.30;;;;;;5060392;28;20047;-60
2022/10/24 13:02:41;;;;;;;12.65;5.57;;;26.10;51.20;;;;;;5062539;28;20127;-61
2022/10/24 13:05:37;;;;;;;12.20;5.38;;;26.10;51.10;;;;;;5065703;28;20114;-63
2022/10/24 13:08:26;;;;;;;10.55;6.35;;;26.10;51.10;;;;;;5058360;28;20481;-64
2022/10/24 13:11:26;;;;;;;9.93;5.78;;;26.10;51.10;;;;;;5064194;28;20961;-63
2022/10/24 13:14:35;;;;;;;16.00;5.38;;;26.20;51.10;;;;;;5075143;28;20052;-62
2022/10/24 13:17:39;;;;;;;8.05;4.63;;;26.20;51.00;;;;;;5056070;28;20481;-61
2022/10/24 13:20:23;;;;;;;14.45;4.93;;;26.20;50.80;;;;;;5055448;28;20066;-60
2022/10/24 13:23:00;;;;;;;12.32;5.18;;;26.20;50.70;;;;;;5049463;28;20045;-62